Accueil
METAR-TAF:

METAR-TAF

Aéroports :

Aéroport de Grenoble Alpes Isère

Grenoble, France

latitude: 45-22N, longitude: 005-20E, altitude: 384 m

Observation

Le bulletin a été fait il y a 28 minutes, à 04:30 UTC
Vent 11 kt de est
Température 2°C
Humidité 69%
Pression 1029 hPa
Visibilité 10 km ou plus
pas de nuages en-dessous de 1500 mètres et pas de cumulonimbus.

METAR: LFLS 160430Z AUTO 08011KT CAVOK 02/M03 Q1029 NOSIG

Heure: 05:58 (04:58 UTC)

Prévision

Le bulletin a été fait il y a 2 heures et 58 minutes, à 02:00 UTC
Prévision valable du 16 à 03 UTC au 17 à 03 UTC
Vent 5 kt de est
Visibilité 10 km ou plus
pas de nuages en-dessous de 1500 mètres et pas de cumulonimbus.
Temporairement
du 16 à 12 UTC au 16 à 18 UTC
Vent 7 kt de sud-ouest

TAF: LFLS 160200Z 1603/1703 09005KT CAVOK TEMPO 1612/1618 23007KT

Observations et prévisions météorologiques de plus de 4000 aéroports (messages METAR et TAF).

Les stations disponibles sont représentées par des disques jaunes et rouges sur la carte.

Passer la souris dessus pour voir le nom de la station.

Cliquer dessus pour voir les observations et prévisions météorologiques.

Pour changer de carte: cliquez sur les boutons verts avec une croix noire pour zoomer, sur le bouton vert avec un tiret pour effectuer un zoom arrière, ou sur les flèches vertes pour les cartes adjacentes.


METAR-TAF: